createdAt,value
2023-05-17T00:01:12.000Z,0
2023-05-17T00:02:28.548Z,0
2023-05-17T00:03:44.683Z,0
2023-05-17T00:05:00.810Z,0
2023-05-17T00:06:16.936Z,0
2023-05-17T00:07:33.076Z,0
2023-05-17T00:08:49.215Z,0
2023-05-17T00:10:05.353Z,0
2023-05-17T00:11:21.478Z,0
2023-05-17T00:12:37.624Z,0
2023-05-17T00:13:53.758Z,0
2023-05-17T00:15:09.906Z,0
2023-05-17T00:16:26.102Z,0
2023-05-17T00:17:41.324Z,0
2023-05-17T00:18:56.533Z,0
2023-05-17T00:20:12.672Z,0
2023-05-17T00:21:28.812Z,0
2023-05-17T00:22:44.939Z,0
2023-05-17T00:24:01.070Z,0
2023-05-17T00:25:17.225Z,0
2023-05-17T00:26:33.345Z,0
2023-05-17T00:27:49.479Z,0
2023-05-17T00:29:05.609Z,0
2023-05-17T00:30:21.748Z,0
2023-05-17T00:31:37.895Z,0
2023-05-17T00:32:54.028Z,0
2023-05-17T00:34:10.173Z,0
2023-05-17T00:35:26.291Z,0
2023-05-17T00:36:42.434Z,0
2023-05-17T00:37:58.573Z,0
2023-05-17T00:39:14.704Z,0
2023-05-17T00:40:30.841Z,0
2023-05-17T00:41:46.969Z,0
2023-05-17T00:43:03.113Z,0
2023-05-17T00:44:19.247Z,0
2023-05-17T00:45:35.383Z,0
2023-05-17T00:46:51.530Z,0
2023-05-17T00:48:07.659Z,0
2023-05-17T00:49:23.796Z,0
2023-05-17T00:50:39.988Z,0
2023-05-17T00:51:55.240Z,0
2023-05-17T00:53:10.438Z,0
2023-05-17T00:54:26.586Z,0
2023-05-17T00:55:42.709Z,0
2023-05-17T00:56:58.848Z,0
2023-05-17T00:58:14.982Z,0
2023-05-17T00:59:31.107Z,0
2023-05-17T01:00:47.261Z,0
2023-05-17T01:02:03.402Z,0
2023-05-17T01:03:19.539Z,0
2023-05-17T01:04:35.671Z,0
2023-05-17T01:05:51.786Z,0
2023-05-17T01:07:07.953Z,0
2023-05-17T01:08:24.081Z,0
2023-05-17T01:09:40.204Z,0
2023-05-17T01:10:56.339Z,0
2023-05-17T01:12:12.469Z,0
2023-05-17T01:13:28.622Z,0
2023-05-17T01:14:44.759Z,0
2023-05-17T01:16:00.897Z,0
2023-05-17T01:17:17.022Z,0
2023-05-17T01:18:33.159Z,0
2023-05-17T01:19:49.296Z,0
2023-05-17T01:21:05.442Z,0
2023-05-17T01:22:21.575Z,0
2023-05-17T01:23:37.697Z,0
2023-05-17T01:24:53.899Z,0
2023-05-17T01:26:09.135Z,0
2023-05-17T01:27:25.315Z,0
2023-05-17T01:28:41.521Z,0
2023-05-17T01:29:56.730Z,0
2023-05-17T01:31:12.860Z,0
2023-05-17T01:32:28.985Z,0
2023-05-17T01:33:45.130Z,0
2023-05-17T01:35:01.264Z,0
2023-05-17T01:36:17.407Z,0
2023-05-17T01:37:33.000Z,0
2023-05-17T01:38:49.662Z,0
2023-05-17T01:40:05.801Z,0
2023-05-17T01:41:21.926Z,0
2023-05-17T01:42:38.085Z,0
2023-05-17T01:43:54.210Z,0
2023-05-17T01:45:10.339Z,0
2023-05-17T01:46:26.483Z,0
2023-05-17T01:47:42.624Z,0
2023-05-17T01:48:58.768Z,0
2023-05-17T01:50:14.891Z,0
2023-05-17T01:51:31.039Z,0
2023-05-17T01:52:47.152Z,0
2023-05-17T01:54:03.304Z,0
2023-05-17T01:55:19.446Z,0
2023-05-17T01:56:35.585Z,0
2023-05-17T01:57:51.705Z,0
2023-05-17T01:59:07.846Z,0
2023-05-17T02:00:23.975Z,0
2023-05-17T02:01:40.183Z,0
2023-05-17T02:02:55.395Z,0
2023-05-17T02:04:10.536Z,0
2023-05-17T02:05:26.693Z,0
2023-05-17T02:06:42.813Z,0
2023-05-17T02:07:58.944Z,0
2023-05-17T02:09:15.080Z,0
2023-05-17T02:10:31.223Z,0
2023-05-17T02:13:03.501Z,0
2023-05-17T02:14:19.633Z,0
2023-05-17T02:15:35.769Z,0
2023-05-17T02:16:51.895Z,0
2023-05-17T02:18:08.041Z,0
2023-05-17T02:19:24.184Z,0
2023-05-17T02:20:40.310Z,0
2023-05-17T02:21:56.438Z,0
2023-05-17T02:23:12.589Z,0
2023-05-17T02:24:28.726Z,0
2023-05-17T02:25:44.866Z,0
2023-05-17T02:27:00.996Z,0
2023-05-17T02:28:17.126Z,0
2023-05-17T02:29:33.258Z,0
2023-05-17T02:30:49.407Z,0
2023-05-17T02:32:05.540Z,0
2023-05-17T02:33:21.682Z,0
2023-05-17T02:34:37.797Z,0
2023-05-17T02:35:53.932Z,0
2023-05-17T02:37:10.080Z,0
2023-05-17T02:38:26.216Z,0
2023-05-17T02:39:42.350Z,0
2023-05-17T02:40:58.488Z,0
2023-05-17T02:42:14.615Z,0
2023-05-17T02:43:30.764Z,0
2023-05-17T02:44:46.896Z,0
2023-05-17T02:46:03.036Z,0
2023-05-17T02:47:19.165Z,0
2023-05-17T02:48:35.306Z,4
2023-05-17T02:49:51.451Z,4
2023-05-17T02:51:07.737Z,0
2023-05-17T02:52:23.854Z,4
2023-05-17T02:53:39.991Z,4
2023-05-17T02:54:56.125Z,4
2023-05-17T02:56:12.281Z,4
2023-05-17T02:57:28.417Z,4
2023-05-17T02:58:44.536Z,4
2023-05-17T03:00:00.680Z,4
2023-05-17T03:01:16.806Z,8
2023-05-17T03:02:32.950Z,12
2023-05-17T03:03:49.089Z,12
2023-05-17T03:05:05.223Z,16
2023-05-17T03:06:21.351Z,20
2023-05-17T03:07:37.493Z,20
2023-05-17T03:08:53.637Z,28
2023-05-17T03:10:09.772Z,28
2023-05-17T03:11:25.904Z,32
2023-05-17T03:12:42.029Z,36
2023-05-17T03:13:58.173Z,40
2023-05-17T03:15:14.315Z,44
2023-05-17T03:16:30.437Z,44
2023-05-17T03:17:46.571Z,44
2023-05-17T03:19:02.714Z,52
2023-05-17T03:20:19.002Z,68
2023-05-17T03:21:35.144Z,76
2023-05-17T03:22:51.262Z,92
2023-05-17T03:24:07.403Z,100
2023-05-17T03:25:23.530Z,112
2023-05-17T03:26:39.667Z,124
2023-05-17T03:27:55.815Z,128
2023-05-17T03:29:11.957Z,140
2023-05-17T03:30:28.079Z,152
2023-05-17T03:31:44.213Z,164
2023-05-17T03:33:00.350Z,176
2023-05-17T03:34:16.496Z,188
2023-05-17T03:35:32.624Z,204
2023-05-17T03:36:48.770Z,216
2023-05-17T03:38:04.887Z,232
2023-05-17T03:39:21.029Z,248
2023-05-17T03:40:37.168Z,264
2023-05-17T03:41:53.301Z,280
2023-05-17T03:43:09.434Z,296
2023-05-17T03:44:25.577Z,316
2023-05-17T03:45:41.705Z,336
2023-05-17T03:46:57.854Z,352
2023-05-17T03:48:13.986Z,372
2023-05-17T03:49:30.120Z,392
2023-05-17T03:50:46.254Z,408
2023-05-17T03:52:02.441Z,424
2023-05-17T03:53:17.706Z,444
2023-05-17T03:54:32.915Z,460
2023-05-17T03:55:49.036Z,476
2023-05-17T03:57:05.195Z,496
2023-05-17T03:58:21.323Z,512
2023-05-17T03:59:37.462Z,532
2023-05-17T04:00:53.587Z,552
2023-05-17T04:02:09.731Z,576
2023-05-17T04:03:25.879Z,600
2023-05-17T04:04:42.004Z,620
2023-05-17T04:05:58.143Z,644
2023-05-17T04:07:14.272Z,668
2023-05-17T04:08:30.412Z,688
2023-05-17T04:09:46.547Z,708
2023-05-17T04:11:02.679Z,732
2023-05-17T04:12:18.813Z,756
2023-05-17T04:13:34.945Z,776
2023-05-17T04:14:51.084Z,796
2023-05-17T04:16:07.240Z,812
2023-05-17T04:17:23.364Z,836
2023-05-17T04:18:39.500Z,856
2023-05-17T04:19:55.643Z,872
2023-05-17T04:21:11.757Z,888
2023-05-17T04:22:27.920Z,908
2023-05-17T04:23:44.051Z,932
2023-05-17T04:25:00.183Z,952
2023-05-17T04:26:16.365Z,980
2023-05-17T04:27:31.609Z,1004
2023-05-17T04:28:46.836Z,1036
2023-05-17T04:30:01.975Z,1056
2023-05-17T04:31:18.121Z,1052
2023-05-17T04:32:34.252Z,1112
2023-05-17T04:33:50.375Z,1140
2023-05-17T04:35:06.506Z,1168
2023-05-17T04:36:22.645Z,1240
2023-05-17T04:37:38.787Z,1240
2023-05-17T04:38:54.933Z,1296
2023-05-17T04:40:11.063Z,1280
2023-05-17T04:41:27.197Z,1316
2023-05-17T04:42:43.328Z,1328
2023-05-17T04:43:59.485Z,1504
2023-05-17T04:45:15.613Z,1320
2023-05-17T04:46:31.736Z,1400
2023-05-17T04:47:47.881Z,1512
2023-05-17T04:49:04.003Z,1516
2023-05-17T04:50:20.161Z,1700
2023-05-17T04:51:36.284Z,1620
2023-05-17T04:52:52.417Z,1608
2023-05-17T04:54:08.559Z,1548
2023-05-17T04:55:24.691Z,1464
2023-05-17T04:56:40.837Z,1588
2023-05-17T04:57:56.970Z,1908
2023-05-17T04:59:13.113Z,1492
2023-05-17T05:00:29.235Z,1448
2023-05-17T05:01:45.373Z,1280
2023-05-17T05:03:01.523Z,1260
2023-05-17T05:04:17.658Z,1488
2023-05-17T05:05:33.786Z,1464
2023-05-17T05:06:49.913Z,1712
2023-05-17T05:08:06.048Z,1896
2023-05-17T05:09:22.203Z,1796
2023-05-17T05:10:38.332Z,1952
2023-05-17T05:11:54.470Z,1620
2023-05-17T05:13:10.596Z,1980
2023-05-17T05:14:26.728Z,2024
2023-05-17T05:15:42.883Z,2508
2023-05-17T05:16:59.060Z,1884
2023-05-17T05:18:14.313Z,2176
2023-05-17T05:19:29.522Z,2232
2023-05-17T05:20:45.656Z,1972
2023-05-17T05:22:01.786Z,2056
2023-05-17T05:23:17.921Z,2188
2023-05-17T05:24:34.041Z,2392
2023-05-17T05:25:50.186Z,2116
2023-05-17T05:27:06.328Z,2136
2023-05-17T05:28:22.450Z,2008
2023-05-17T05:29:38.598Z,1876
2023-05-17T05:30:54.733Z,1896
2023-05-17T05:32:10.874Z,2164
2023-05-17T05:33:27.009Z,2260
2023-05-17T05:34:43.148Z,2824
2023-05-17T05:35:59.262Z,3368
2023-05-17T05:37:15.403Z,4060
2023-05-17T05:38:31.559Z,3864
2023-05-17T05:39:47.677Z,4100
2023-05-17T05:41:03.810Z,3564
2023-05-17T05:42:19.945Z,4024
2023-05-17T05:43:36.086Z,4580
2023-05-17T05:44:52.242Z,3828
2023-05-17T05:46:08.367Z,4040
2023-05-17T05:47:24.508Z,4328
2023-05-17T05:48:40.633Z,4240
2023-05-17T05:49:56.774Z,4624
2023-05-17T05:51:12.979Z,4908
2023-05-17T05:52:28.218Z,4716
2023-05-17T05:53:44.412Z,5360
2023-05-17T05:54:59.606Z,5304
2023-05-17T05:56:15.747Z,4312
2023-05-17T05:57:31.871Z,4184
2023-05-17T05:58:48.000Z,4692
2023-05-17T06:00:04.149Z,5028
2023-05-17T06:01:20.286Z,4844
2023-05-17T06:02:36.418Z,4028
2023-05-17T06:03:52.555Z,4012
2023-05-17T06:05:08.683Z,4620
2023-05-17T06:06:24.828Z,3804
2023-05-17T06:07:40.973Z,5700
2023-05-17T06:08:57.105Z,6208
2023-05-17T06:10:13.232Z,4724
2023-05-17T06:11:29.368Z,4340
2023-05-17T06:12:45.496Z,6412
2023-05-17T06:14:01.662Z,4768
2023-05-17T06:15:17.794Z,3148
2023-05-17T06:16:33.926Z,4508
2023-05-17T06:17:50.061Z,6856
2023-05-17T06:19:06.182Z,7504
2023-05-17T06:20:22.340Z,8124
2023-05-17T06:21:38.617Z,5140
2023-05-17T06:22:54.754Z,3808
2023-05-17T06:24:10.878Z,3688
2023-05-17T06:25:27.022Z,2964
2023-05-17T06:26:43.159Z,2928
2023-05-17T06:27:59.304Z,4952
2023-05-17T06:29:15.423Z,3496
2023-05-17T06:30:31.567Z,2720
2023-05-17T06:31:47.704Z,2860
2023-05-17T06:33:03.838Z,3132
2023-05-17T06:34:19.971Z,6168
2023-05-17T06:35:36.109Z,6640
2023-05-17T06:36:52.239Z,7420
2023-05-17T06:38:08.388Z,7824
2023-05-17T06:39:24.529Z,8296
2023-05-17T06:40:40.660Z,5236
2023-05-17T06:41:56.793Z,5952
2023-05-17T06:43:12.923Z,5872
2023-05-17T06:44:29.058Z,3060
2023-05-17T06:45:45.216Z,3808
2023-05-17T06:47:01.339Z,5464
2023-05-17T06:48:17.467Z,4060
2023-05-17T06:49:33.609Z,3028
2023-05-17T06:50:49.734Z,3940
2023-05-17T06:52:05.884Z,5320
2023-05-17T06:53:22.080Z,3220
2023-05-17T06:54:37.295Z,4036
2023-05-17T06:55:53.420Z,7640
2023-05-17T06:57:09.569Z,8900
2023-05-17T06:58:25.698Z,8124
2023-05-17T06:59:41.829Z,7100
2023-05-17T07:00:57.969Z,8472
2023-05-17T07:02:14.102Z,7632
2023-05-17T07:03:30.252Z,6580
2023-05-17T07:04:46.376Z,8736
2023-05-17T07:06:02.515Z,10792
2023-05-17T07:07:18.651Z,7156
2023-05-17T07:08:34.782Z,6904
2023-05-17T07:09:50.935Z,9944
2023-05-17T07:11:07.069Z,10516
2023-05-17T07:12:23.196Z,10776
2023-05-17T07:13:39.339Z,5680
2023-05-17T07:14:55.461Z,5148
2023-05-17T07:16:11.618Z,4296
2023-05-17T07:17:27.737Z,4332
2023-05-17T07:18:43.889Z,5376
2023-05-17T07:20:00.007Z,9096
2023-05-17T07:21:16.142Z,44320
2023-05-17T07:22:32.297Z,45888
2023-05-17T07:23:48.421Z,49920
2023-05-17T07:25:04.553Z,49696
2023-05-17T07:26:20.744Z,51648
2023-05-17T07:27:35.969Z,52384
2023-05-17T07:28:52.103Z,52064
2023-05-17T07:30:08.227Z,48544
2023-05-17T07:31:24.357Z,48576
2023-05-17T07:32:40.496Z,48832
2023-05-17T07:33:56.635Z,47808
2023-05-17T07:35:12.781Z,16288
2023-05-17T07:36:28.910Z,4608
2023-05-17T07:37:45.047Z,3880
2023-05-17T07:39:01.172Z,3284
2023-05-17T07:40:17.329Z,2676
2023-05-17T07:41:33.461Z,2492
2023-05-17T07:42:49.585Z,2504
2023-05-17T07:44:05.725Z,2560
2023-05-17T07:45:21.846Z,2532
2023-05-17T07:46:38.010Z,2748
2023-05-17T07:47:54.132Z,3680
2023-05-17T07:49:10.276Z,3212
2023-05-17T07:50:26.406Z,3208
2023-05-17T07:51:42.544Z,3404
2023-05-17T07:52:58.691Z,2916
2023-05-17T07:54:14.815Z,3152
2023-05-17T07:55:30.950Z,3500
2023-05-17T07:56:47.087Z,3528
2023-05-17T07:58:03.225Z,3952
2023-05-17T07:59:19.420Z,4660
2023-05-17T08:00:34.658Z,6240
2023-05-17T08:01:49.868Z,7788
2023-05-17T08:03:06.019Z,6424
2023-05-17T08:04:22.153Z,6936
2023-05-17T08:05:38.288Z,9168
2023-05-17T08:06:54.423Z,9272
2023-05-17T08:08:10.560Z,8608
2023-05-17T08:09:26.692Z,10356
2023-05-17T08:11:58.959Z,8016
2023-05-17T08:13:15.095Z,6556
2023-05-17T08:14:31.233Z,5260
2023-05-17T08:15:47.378Z,5908
2023-05-17T08:17:03.517Z,6124
2023-05-17T08:18:19.650Z,4508
2023-05-17T08:19:35.790Z,3536
2023-05-17T08:20:51.920Z,3460
2023-05-17T08:22:08.062Z,3104
2023-05-17T08:23:24.198Z,3456
2023-05-17T08:24:40.329Z,5684
2023-05-17T08:25:56.459Z,16344
2023-05-17T08:27:12.587Z,57632
2023-05-17T08:28:28.746Z,10872
2023-05-17T08:29:44.876Z,13228
2023-05-17T08:31:01.015Z,8656
2023-05-17T08:32:17.141Z,8092
2023-05-17T08:33:33.000Z,7212
2023-05-17T08:34:48.596Z,7564
2023-05-17T08:36:03.808Z,6520
2023-05-17T08:37:19.944Z,6536
2023-05-17T08:38:36.076Z,8036
2023-05-17T08:39:52.221Z,8964
2023-05-17T08:41:08.347Z,10596
2023-05-17T08:42:24.492Z,13776
2023-05-17T08:43:40.612Z,14284
2023-05-17T08:44:56.761Z,17536
2023-05-17T08:46:12.893Z,12768
2023-05-17T08:47:29.039Z,12660
2023-05-17T08:48:45.168Z,43520
2023-05-17T08:50:01.306Z,11536
2023-05-17T08:51:17.454Z,8464
2023-05-17T08:52:33.577Z,8744
2023-05-17T08:53:49.714Z,12056
2023-05-17T08:55:05.844Z,11956
2023-05-17T08:56:21.977Z,79296
2023-05-17T08:57:38.138Z,65120
2023-05-17T08:58:54.255Z,34976
2023-05-17T09:00:10.406Z,45216
2023-05-17T09:01:26.534Z,12208
2023-05-17T09:02:42.668Z,9176
2023-05-17T09:03:58.818Z,8200
2023-05-17T09:05:14.942Z,11640
2023-05-17T09:06:31.076Z,11584
2023-05-17T09:07:47.263Z,10144
2023-05-17T09:09:02.518Z,10912
2023-05-17T09:10:18.707Z,70368
2023-05-17T09:11:33.913Z,15864
2023-05-17T09:12:50.035Z,72416
2023-05-17T09:14:06.190Z,60160
2023-05-17T09:15:22.324Z,45312
2023-05-17T09:16:38.463Z,84000
2023-05-17T09:17:54.588Z,70816
2023-05-17T09:19:10.732Z,15064
2023-05-17T09:20:26.868Z,81632
2023-05-17T09:21:42.998Z,77440
2023-05-17T09:22:59.131Z,39776
2023-05-17T09:24:15.268Z,81056
2023-05-17T09:25:31.401Z,31328
2023-05-17T09:26:47.546Z,84256
2023-05-17T09:28:03.691Z,90208
2023-05-17T09:29:19.818Z,14820
2023-05-17T09:30:35.960Z,16140
2023-05-17T09:31:52.086Z,25344
2023-05-17T09:33:08.245Z,14504
2023-05-17T09:34:24.373Z,8716
2023-05-17T09:35:40.512Z,15340
2023-05-17T09:36:56.642Z,15756
2023-05-17T09:38:12.763Z,37184
2023-05-17T09:39:28.922Z,12820
2023-05-17T09:42:01.189Z,9256
2023-05-17T09:43:17.379Z,9132
2023-05-17T09:44:32.615Z,9368
2023-05-17T09:45:47.823Z,10964
2023-05-17T09:47:02.975Z,135328
2023-05-17T09:48:19.130Z,111584
2023-05-17T09:49:35.256Z,75232
2023-05-17T09:50:51.393Z,54304
2023-05-17T09:52:07.537Z,34208
2023-05-17T09:53:23.671Z,27616
2023-05-17T09:54:39.819Z,26752
2023-05-17T09:55:55.937Z,24224
2023-05-17T09:57:12.088Z,25120
2023-05-17T09:58:28.208Z,27232
2023-05-17T09:59:44.348Z,25472
2023-05-17T10:01:00.501Z,19968
2023-05-17T10:02:16.633Z,19712
2023-05-17T10:03:32.764Z,30848
2023-05-17T10:04:48.893Z,12668
2023-05-17T10:06:05.028Z,18452
2023-05-17T10:07:21.181Z,26144
2023-05-17T10:08:37.314Z,30752
2023-05-17T10:09:53.448Z,18700
2023-05-17T10:11:09.587Z,19200
2023-05-17T10:12:25.721Z,9692
2023-05-17T10:13:41.868Z,28064
2023-05-17T10:16:14.136Z,29856
2023-05-17T10:17:30.261Z,31232
2023-05-17T10:18:46.400Z,16284
2023-05-17T10:20:02.560Z,27680
2023-05-17T10:21:18.691Z,26848
2023-05-17T10:22:34.813Z,26752
2023-05-17T10:23:50.964Z,26848
2023-05-17T10:25:07.096Z,22720
2023-05-17T10:26:23.234Z,9352
2023-05-17T10:27:39.372Z,32448
2023-05-17T10:28:55.503Z,25664
2023-05-17T10:30:11.638Z,32832
2023-05-17T10:31:27.775Z,23264
2023-05-17T10:32:43.922Z,12964
2023-05-17T10:34:00.114Z,10592
2023-05-17T10:35:15.354Z,8992
2023-05-17T10:36:30.567Z,9036
2023-05-17T10:37:46.709Z,9508
2023-05-17T10:39:02.833Z,34816
2023-05-17T10:40:18.979Z,12276
2023-05-17T10:41:35.107Z,11168
2023-05-17T10:42:51.245Z,14736
2023-05-17T10:44:07.396Z,11312
2023-05-17T10:45:23.511Z,10648
2023-05-17T10:46:39.653Z,37856
2023-05-17T10:47:55.792Z,37280
2023-05-17T10:49:11.928Z,37024
2023-05-17T10:50:28.061Z,37824
2023-05-17T10:51:44.208Z,37184
2023-05-17T10:53:00.348Z,36960
2023-05-17T10:54:16.466Z,38016
2023-05-17T10:55:32.614Z,35712
2023-05-17T10:56:48.755Z,35744
2023-05-17T10:58:04.899Z,36256
2023-05-17T10:59:21.025Z,37216
2023-05-17T11:00:37.151Z,36640
2023-05-17T11:01:53.308Z,36480
2023-05-17T11:03:09.434Z,37248
2023-05-17T11:04:25.584Z,37920
2023-05-17T11:05:41.717Z,36832
2023-05-17T11:06:57.851Z,37376
2023-05-17T11:08:14.050Z,30080
2023-05-17T11:09:29.296Z,34816
2023-05-17T11:10:44.500Z,39552
2023-05-17T11:12:00.653Z,37824
2023-05-17T11:13:16.775Z,35648
2023-05-17T11:14:32.908Z,34880
2023-05-17T11:15:49.051Z,36608
2023-05-17T11:17:05.177Z,20448
2023-05-17T11:18:21.334Z,34432
2023-05-17T11:19:37.474Z,8244
2023-05-17T11:20:53.599Z,8004
2023-05-17T11:22:09.736Z,38304
2023-05-17T11:23:25.872Z,34272
2023-05-17T11:24:42.015Z,30432
2023-05-17T11:25:58.150Z,4484
2023-05-17T11:27:14.296Z,7492
2023-05-17T11:28:30.426Z,7420
2023-05-17T11:29:46.550Z,9164
2023-05-17T11:31:02.705Z,7456
2023-05-17T11:32:18.844Z,8140
2023-05-17T11:33:34.982Z,8972
2023-05-17T11:34:51.114Z,9656
2023-05-17T11:36:07.234Z,9036
2023-05-17T11:37:23.384Z,8388
2023-05-17T11:38:39.515Z,7220
2023-05-17T11:39:55.668Z,6728
2023-05-17T11:41:11.789Z,5188
2023-05-17T11:42:27.984Z,5236
2023-05-17T11:43:43.223Z,5284
2023-05-17T11:44:59.413Z,4968
2023-05-17T11:46:14.619Z,6164
2023-05-17T11:47:30.770Z,4980
2023-05-17T11:48:46.904Z,4236
2023-05-17T11:50:03.035Z,4108
2023-05-17T11:51:19.170Z,4684
2023-05-17T11:52:35.302Z,5108
2023-05-17T11:53:51.453Z,4668
2023-05-17T11:55:07.584Z,4740
2023-05-17T11:56:23.717Z,4444
2023-05-17T11:57:39.857Z,3076
2023-05-17T11:58:55.993Z,3308
2023-05-17T12:00:12.134Z,4152
2023-05-17T12:01:28.275Z,4056
2023-05-17T12:02:44.406Z,5148
2023-05-17T12:04:00.535Z,4208
2023-05-17T12:05:16.675Z,3516
2023-05-17T12:06:32.817Z,3060
2023-05-17T12:07:48.939Z,3600
2023-05-17T12:09:05.090Z,3904
2023-05-17T12:10:21.215Z,4760
2023-05-17T12:11:37.355Z,4336
2023-05-17T12:12:53.505Z,4012
2023-05-17T12:14:09.628Z,4572
2023-05-17T12:15:25.759Z,6796
2023-05-17T12:16:41.893Z,6596
2023-05-17T12:17:58.092Z,5236
2023-05-17T12:19:13.336Z,4276
2023-05-17T12:20:28.538Z,3160
2023-05-17T12:21:44.676Z,3884
2023-05-17T12:23:00.813Z,4420
2023-05-17T12:24:16.960Z,5988
2023-05-17T12:25:33.093Z,5316
2023-05-17T12:26:49.224Z,5656
2023-05-17T12:28:05.342Z,5112
2023-05-17T12:29:21.491Z,3672
2023-05-17T12:30:37.642Z,3476
2023-05-17T12:31:53.759Z,3380
2023-05-17T12:33:09.890Z,3756
2023-05-17T12:34:26.032Z,4308
2023-05-17T12:35:42.187Z,3776
2023-05-17T12:36:58.320Z,3016
2023-05-17T12:38:14.437Z,2548
2023-05-17T12:39:30.586Z,2420
2023-05-17T12:40:46.708Z,2424
2023-05-17T12:42:02.857Z,2336
2023-05-17T12:43:18.999Z,2348
2023-05-17T12:44:35.131Z,2840
2023-05-17T12:45:51.261Z,2916
2023-05-17T12:47:07.396Z,3196
2023-05-17T12:48:23.544Z,4156
2023-05-17T12:49:39.686Z,4892
2023-05-17T12:50:55.806Z,5216
2023-05-17T12:52:12.003Z,4804
2023-05-17T12:53:27.258Z,4960
2023-05-17T12:54:42.471Z,4368
2023-05-17T12:55:57.618Z,3756
2023-05-17T12:57:13.759Z,3192
2023-05-17T12:58:29.907Z,3352
2023-05-17T12:59:46.029Z,3500
2023-05-17T13:01:02.179Z,3096
2023-05-17T13:02:18.304Z,2664
2023-05-17T13:03:34.452Z,2524
2023-05-17T13:04:50.576Z,2428
2023-05-17T13:06:06.713Z,2544
2023-05-17T13:07:22.843Z,2972
2023-05-17T13:08:38.979Z,3380
2023-05-17T13:09:55.139Z,3480
2023-05-17T13:11:11.268Z,4220
2023-05-17T13:12:27.393Z,3868
2023-05-17T13:13:43.542Z,3428
2023-05-17T13:14:59.661Z,2988
2023-05-17T13:16:15.822Z,2616
2023-05-17T13:17:31.954Z,2500
2023-05-17T13:18:48.086Z,3524
2023-05-17T13:20:04.213Z,3432
2023-05-17T13:21:20.339Z,4036
2023-05-17T13:22:36.506Z,5092
2023-05-17T13:23:52.624Z,5032
2023-05-17T13:25:08.770Z,3948
2023-05-17T13:26:24.887Z,3228
2023-05-17T13:27:41.027Z,2576
2023-05-17T13:28:57.175Z,3112
2023-05-17T13:30:13.309Z,3412
2023-05-17T13:31:29.445Z,3960
2023-05-17T13:32:45.587Z,3740
2023-05-17T13:34:01.707Z,2940
2023-05-17T13:35:17.849Z,2480
2023-05-17T13:36:34.000Z,2556
2023-05-17T13:37:50.128Z,3108
2023-05-17T13:39:06.267Z,3076
2023-05-17T13:40:22.397Z,2796
2023-05-17T13:41:38.533Z,2868
2023-05-17T13:42:54.734Z,2944
2023-05-17T13:44:09.966Z,3720
2023-05-17T13:45:25.170Z,3164
2023-05-17T13:46:41.312Z,3516
2023-05-17T13:47:57.444Z,3756
2023-05-17T13:49:13.575Z,3424
2023-05-17T13:50:29.712Z,3528
2023-05-17T13:51:45.871Z,3368
2023-05-17T13:53:02.000Z,2800
2023-05-17T13:54:18.131Z,2300
2023-05-17T13:55:34.271Z,2176
2023-05-17T13:56:50.387Z,2732
2023-05-17T13:58:06.533Z,3452
2023-05-17T13:59:22.668Z,3100
2023-05-17T14:00:38.800Z,2376
2023-05-17T14:03:11.081Z,1508
2023-05-17T14:04:27.227Z,1544
2023-05-17T14:05:43.349Z,1872
2023-05-17T14:06:59.494Z,2180
2023-05-17T14:08:15.624Z,2032
2023-05-17T14:09:31.746Z,1840
2023-05-17T14:10:47.911Z,1868
2023-05-17T14:12:04.035Z,1768
2023-05-17T14:13:20.167Z,1748
2023-05-17T14:14:36.308Z,1464
2023-05-17T14:15:52.431Z,1764
2023-05-17T14:17:08.642Z,2108
2023-05-17T14:18:23.881Z,2560
2023-05-17T14:19:40.073Z,2440
2023-05-17T14:20:55.285Z,1880
2023-05-17T14:22:11.406Z,1568
2023-05-17T14:23:27.540Z,1500
2023-05-17T14:24:43.680Z,1656
2023-05-17T14:25:59.810Z,1932
2023-05-17T14:27:15.954Z,2164
2023-05-17T14:28:32.095Z,2424
2023-05-17T14:29:48.226Z,2912
2023-05-17T14:31:04.351Z,3976
2023-05-17T14:32:20.486Z,4636
2023-05-17T14:33:36.649Z,4892
2023-05-17T14:34:52.766Z,4264
2023-05-17T14:36:08.909Z,3140
2023-05-17T14:37:25.045Z,2236
2023-05-17T14:38:41.166Z,1812
2023-05-17T14:39:57.314Z,2232
2023-05-17T14:41:13.459Z,2992
2023-05-17T14:42:29.600Z,2688
2023-05-17T14:43:45.726Z,1932
2023-05-17T14:45:01.849Z,1536
2023-05-17T14:46:18.002Z,1536
2023-05-17T14:47:34.129Z,1568
2023-05-17T14:48:50.282Z,1768
2023-05-17T14:50:06.397Z,1932
2023-05-17T14:51:22.532Z,1844
2023-05-17T14:52:38.745Z,1648
2023-05-17T14:53:53.985Z,1476
2023-05-17T14:55:09.184Z,1256
2023-05-17T14:56:25.336Z,1256
2023-05-17T14:57:41.465Z,1384
2023-05-17T14:58:57.612Z,1376
2023-05-17T15:00:13.735Z,1264
2023-05-17T15:01:29.866Z,1180
2023-05-17T15:02:46.022Z,1268
2023-05-17T15:04:02.146Z,1628
2023-05-17T15:05:18.289Z,1872
2023-05-17T15:06:34.408Z,1752
2023-05-17T15:07:50.550Z,1840
2023-05-17T15:09:06.706Z,1864
2023-05-17T15:10:22.837Z,1876
2023-05-17T15:11:38.955Z,1660
2023-05-17T15:12:55.092Z,1676
2023-05-17T15:14:11.237Z,1768
2023-05-17T15:15:27.389Z,2020
2023-05-17T15:16:43.516Z,2192
2023-05-17T15:17:59.637Z,1676
2023-05-17T15:19:15.780Z,1416
2023-05-17T15:20:31.913Z,1240
2023-05-17T15:21:48.064Z,1148
2023-05-17T15:23:04.187Z,1064
2023-05-17T15:24:20.319Z,1068
2023-05-17T15:25:36.460Z,1008
2023-05-17T15:26:52.656Z,1020
2023-05-17T15:28:07.891Z,1024
2023-05-17T15:29:23.088Z,1024
2023-05-17T15:30:39.240Z,1160
2023-05-17T15:31:55.370Z,1212
2023-05-17T15:33:11.506Z,1272
2023-05-17T15:34:27.637Z,1220
2023-05-17T15:35:43.783Z,1348
2023-05-17T15:36:59.909Z,1368
2023-05-17T15:38:16.053Z,1384
2023-05-17T15:39:32.197Z,1256
2023-05-17T15:40:48.327Z,1176
2023-05-17T15:42:04.468Z,1280
2023-05-17T15:43:20.597Z,1808
2023-05-17T15:44:36.739Z,2220
2023-05-17T15:45:52.882Z,2116
2023-05-17T15:47:09.002Z,1872
2023-05-17T15:48:25.000Z,1712
2023-05-17T15:49:41.274Z,1624
2023-05-17T15:50:57.422Z,1580
2023-05-17T15:52:13.545Z,1292
2023-05-17T15:53:29.688Z,1108
2023-05-17T15:54:45.817Z,1048
2023-05-17T15:56:01.956Z,1108
2023-05-17T15:57:18.093Z,1428
2023-05-17T15:58:34.237Z,1468
2023-05-17T15:59:50.366Z,1220
2023-05-17T16:01:06.550Z,1076
2023-05-17T16:02:21.790Z,1160
2023-05-17T16:03:37.996Z,1436
2023-05-17T16:04:53.203Z,1720
2023-05-17T16:06:09.329Z,1952
2023-05-17T16:07:25.470Z,2024
2023-05-17T16:08:41.620Z,2064
2023-05-17T16:09:57.745Z,1788
2023-05-17T16:11:13.888Z,1440
2023-05-17T16:12:30.003Z,1200
2023-05-17T16:13:46.149Z,1048
2023-05-17T16:15:02.292Z,948
2023-05-17T16:16:18.423Z,872
2023-05-17T16:17:34.557Z,832
2023-05-17T16:18:50.682Z,844
2023-05-17T16:20:06.839Z,960
2023-05-17T16:21:23.092Z,1124
2023-05-17T16:22:39.225Z,1184
2023-05-17T16:23:55.352Z,1156
2023-05-17T16:25:11.501Z,1044
2023-05-17T16:26:27.637Z,944
2023-05-17T16:27:43.770Z,868
2023-05-17T16:28:59.899Z,844
2023-05-17T16:30:16.197Z,820
2023-05-17T16:31:32.329Z,828
2023-05-17T16:32:48.471Z,900
2023-05-17T16:34:04.604Z,996
2023-05-17T16:35:20.746Z,1124
2023-05-17T16:36:36.871Z,1220
2023-05-17T16:37:52.997Z,1292
2023-05-17T16:39:09.153Z,1248
2023-05-17T16:40:25.408Z,1076
2023-05-17T16:41:41.532Z,968
2023-05-17T16:42:57.679Z,888
2023-05-17T16:44:13.815Z,912
2023-05-17T16:45:29.961Z,1048
2023-05-17T16:46:46.091Z,1240
2023-05-17T16:48:02.224Z,1260
2023-05-17T16:49:18.366Z,1200
2023-05-17T16:50:34.482Z,1120
2023-05-17T16:51:50.634Z,1056
2023-05-17T16:53:06.776Z,944
2023-05-17T16:54:22.901Z,836
2023-05-17T16:55:39.030Z,808
2023-05-17T16:56:55.163Z,800
2023-05-17T16:58:11.000Z,772
2023-05-17T16:59:27.460Z,732
2023-05-17T17:00:43.582Z,704
2023-05-17T17:01:59.724Z,696
2023-05-17T17:03:15.848Z,712
2023-05-17T17:04:31.988Z,744
2023-05-17T17:05:48.138Z,752
2023-05-17T17:07:04.265Z,728
2023-05-17T17:08:20.401Z,676
2023-05-17T17:09:36.540Z,664
2023-05-17T17:10:52.670Z,696
2023-05-17T17:12:08.810Z,752
2023-05-17T17:13:24.946Z,796
2023-05-17T17:14:41.068Z,840
2023-05-17T17:15:57.211Z,856
2023-05-17T17:17:13.348Z,796